Terminal Aerodrome Forecast
Issued by NWS Twin Cities, MN

Home | Current Version | Previous Version | Text Only | Print | Product List | Glossary On
Versions: 1 2 3 4 5 6 7 8 9 10 11 12 13 14 15 16
000
FTUS43 KMPX 222100 AAA
TAFSTC
TAF AMD
KSTC 222134Z 2222/2318 12008KT 3SM -RA BR OVC006
      TEMPO 2222/2224 1 1/2SM -SN BR OVC008
     FM230000 09009KT 2SM -SN BR OVC007
     FM230500 05010KT 1 1/2SM -SN BR OVC006
     FM230900 02011KT 3SM -SN BR OVC007=

USA.gov is the U.S. government's official web portal to all federal, state and local government web resources and services.